sensor_id;sensor_type;location;lat;lon;timestamp;temperature;humidity
63277;DHT22;49403;51.046;13.780;2022-10-30T00:00:10;14.00;94.30
63277;DHT22;49403;51.046;13.780;2022-10-30T00:00:41;15.70;94.90
63277;DHT22;49403;51.046;13.780;2022-10-30T00:01:12;15.60;95.10
63277;DHT22;49403;51.046;13.780;2022-10-30T00:01:43;15.70;95.10
63277;DHT22;49403;51.046;13.780;2022-10-30T00:02:13;15.70;95.10
63277;DHT22;49403;51.046;13.780;2022-10-30T00:02:47;13.80;94.30
63277;DHT22;49403;51.046;13.780;2022-10-30T00:03:18;15.70;94.70
63277;DHT22;49403;51.046;13.780;2022-10-30T00:03:48;15.80;95.30
63277;DHT22;49403;51.046;13.780;2022-10-30T00:04:19;16.60;95.50
63277;DHT22;49403;51.046;13.780;2022-10-30T00:04:50;15.60;95.10
63277;DHT22;49403;51.046;13.780;2022-10-30T00:05:20;15.60;95.30
63277;DHT22;49403;51.046;13.780;2022-10-30T00:05:51;15.70;95.20
63277;DHT22;49403;51.046;13.780;2022-10-30T00:06:21;15.60;95.30
63277;DHT22;49403;51.046;13.780;2022-10-30T00:06:52;15.00;94.90
63277;DHT22;49403;51.046;13.780;2022-10-30T00:07:23;15.50;95.00
63277;DHT22;49403;51.046;13.780;2022-10-30T00:07:54;15.50;95.20
63277;DHT22;49403;51.046;13.780;2022-10-30T00:08:24;15.50;94.90
63277;DHT22;49403;51.046;13.780;2022-10-30T00:08:55;15.60;95.10
63277;DHT22;49403;51.046;13.780;2022-10-30T00:09:26;15.50;95.10
63277;DHT22;49403;51.046;13.780;2022-10-30T00:09:56;15.50;95.20
63277;DHT22;49403;51.046;13.780;2022-10-30T00:10:27;15.50;95.30
63277;DHT22;49403;51.046;13.780;2022-10-30T00:11:03;16.70;95.80
63277;DHT22;49403;51.046;13.780;2022-10-30T00:11:34;15.50;95.00
63277;DHT22;49403;51.046;13.780;2022-10-30T00:12:05;15.70;95.70
63277;DHT22;49403;51.046;13.780;2022-10-30T00:12:35;15.50;95.30
63277;DHT22;49403;51.046;13.780;2022-10-30T00:13:06;15.50;95.30
63277;DHT22;49403;51.046;13.780;2022-10-30T00:13:37;15.40;95.00
63277;DHT22;49403;51.046;13.780;2022-10-30T00:14:08;15.40;95.20
63277;DHT22;49403;51.046;13.780;2022-10-30T00:14:39;15.40;95.30
63277;DHT22;49403;51.046;13.780;2022-10-30T00:15:10;15.40;95.30
63277;DHT22;49403;51.046;13.780;2022-10-30T00:15:45;15.40;95.10
63277;DHT22;49403;51.046;13.780;2022-10-30T00:16:16;14.80;94.80
63277;DHT22;49403;51.046;13.780;2022-10-30T00:16:47;15.40;95.50
63277;DHT22;49403;51.046;13.780;2022-10-30T00:17:17;15.30;95.30
63277;DHT22;49403;51.046;13.780;2022-10-30T00:17:48;15.40;95.80
63277;DHT22;49403;51.046;13.780;2022-10-30T00:18:19;15.30;95.50
63277;DHT22;49403;51.046;13.780;2022-10-30T00:18:50;15.30;95.20
63277;DHT22;49403;51.046;13.780;2022-10-30T00:19:21;15.30;95.50
63277;DHT22;49403;51.046;13.780;2022-10-30T00:19:51;15.30;95.50
63277;DHT22;49403;51.046;13.780;2022-10-30T00:20:22;15.30;95.50
63277;DHT22;49403;51.046;13.780;2022-10-30T00:20:52;15.30;95.50
63277;DHT22;49403;51.046;13.780;2022-10-30T00:21:23;17.50;96.60
63277;DHT22;49403;51.046;13.780;2022-10-30T00:21:54;15.30;95.60
63277;DHT22;49403;51.046;13.780;2022-10-30T00:22:26;15.30;95.60
63277;DHT22;49403;51.046;13.780;2022-10-30T00:22:57;15.40;95.80
63277;DHT22;49403;51.046;13.780;2022-10-30T00:23:28;15.20;95.80
63277;DHT22;49403;51.046;13.780;2022-10-30T00:23:58;15.30;95.70
63277;DHT22;49403;51.046;13.780;2022-10-30T00:24:29;15.20;95.60
63277;DHT22;49403;51.046;13.780;2022-10-30T00:24:59;15.20;95.70
63277;DHT22;49403;51.046;13.780;2022-10-30T00:25:30;15.30;95.70
63277;DHT22;49403;51.046;13.780;2022-10-30T00:26:02;15.20;95.60
63277;DHT22;49403;51.046;13.780;2022-10-30T00:26:33;15.20;95.50
63277;DHT22;49403;51.046;13.780;2022-10-30T00:27:04;15.20;95.80
63277;DHT22;49403;51.046;13.780;2022-10-30T00:27:34;15.10;95.70
63277;DHT22;49403;51.046;13.780;2022-10-30T00:28:05;15.20;95.80
63277;DHT22;49403;51.046;13.780;2022-10-30T00:28:36;15.20;95.50
63277;DHT22;49403;51.046;13.780;2022-10-30T00:29:07;15.20;95.90
63277;DHT22;49403;51.046;13.780;2022-10-30T00:29:38;13.90;95.30
63277;DHT22;49403;51.046;13.780;2022-10-30T00:30:09;15.20;95.90
63277;DHT22;49403;51.046;13.780;2022-10-30T00:30:40;15.20;95.60
63277;DHT22;49403;51.046;13.780;2022-10-30T00:31:10;15.20;95.90
63277;DHT22;49403;51.046;13.780;2022-10-30T00:31:41;15.90;96.40
63277;DHT22;49403;51.046;13.780;2022-10-30T00:32:11;15.20;96.00
63277;DHT22;49403;51.046;13.780;2022-10-30T00:32:42;16.80;96.70
63277;DHT22;49403;51.046;13.780;2022-10-30T00:33:13;15.10;95.90
63277;DHT22;49403;51.046;13.780;2022-10-30T00:33:47;15.20;96.10
63277;DHT22;49403;51.046;13.780;2022-10-30T00:34:18;15.20;95.80
63277;DHT22;49403;51.046;13.780;2022-10-30T00:34:48;16.40;96.60
63277;DHT22;49403;51.046;13.780;2022-10-30T00:35:19;15.20;96.20
63277;DHT22;49403;51.046;13.780;2022-10-30T00:35:49;15.40;96.30
63277;DHT22;49403;51.046;13.780;2022-10-30T00:36:20;15.20;96.10
63277;DHT22;49403;51.046;13.780;2022-10-30T00:36:51;15.20;95.80
63277;DHT22;49403;51.046;13.780;2022-10-30T00:37:22;15.10;96.10
63277;DHT22;49403;51.046;13.780;2022-10-30T00:37:52;15.50;96.30
63277;DHT22;49403;51.046;13.780;2022-10-30T00:38:23;15.20;96.30
63277;DHT22;49403;51.046;13.780;2022-10-30T00:38:53;15.10;96.10
63277;DHT22;49403;51.046;13.780;2022-10-30T00:39:24;15.10;96.10
63277;DHT22;49403;51.046;13.780;2022-10-30T00:39:55;15.10;96.10
63277;DHT22;49403;51.046;13.780;2022-10-30T00:40:25;15.10;96.20
63277;DHT22;49403;51.046;13.780;2022-10-30T00:40:56;15.20;96.20
63277;DHT22;49403;51.046;13.780;2022-10-30T00:41:27;15.10;96.20
63277;DHT22;49403;51.046;13.780;2022-10-30T00:41:57;15.10;96.30
63277;DHT22;49403;51.046;13.780;2022-10-30T00:42:29;14.50;96.00
63277;DHT22;49403;51.046;13.780;2022-10-30T00:42:59;15.20;96.10
63277;DHT22;49403;51.046;13.780;2022-10-30T00:43:34;15.10;96.60
63277;DHT22;49403;51.046;13.780;2022-10-30T00:44:54;15.10;95.90
63277;DHT22;49403;51.046;13.780;2022-10-30T00:45:24;15.20;96.60
63277;DHT22;49403;51.046;13.780;2022-10-30T00:45:55;15.10;96.40
63277;DHT22;49403;51.046;13.780;2022-10-30T00:46:58;15.20;96.30
63277;DHT22;49403;51.046;13.780;2022-10-30T00:47:35;15.30;96.20
63277;DHT22;49403;51.046;13.780;2022-10-30T00:48:07;15.80;96.50
63277;DHT22;49403;51.046;13.780;2022-10-30T00:48:39;15.20;96.10
63277;DHT22;49403;51.046;13.780;2022-10-30T00:49:14;15.20;96.10
63277;DHT22;49403;51.046;13.780;2022-10-30T00:49:50;15.30;96.00
63277;DHT22;49403;51.046;13.780;2022-10-30T00:50:25;15.30;96.10
63277;DHT22;49403;51.046;13.780;2022-10-30T00:50:56;14.80;95.70
63277;DHT22;49403;51.046;13.780;2022-10-30T00:51:28;15.20;96.10
63277;DHT22;49403;51.046;13.780;2022-10-30T00:52:00;15.20;96.10
63277;DHT22;49403;51.046;13.780;2022-10-30T00:52:33;15.30;96.10
63277;DHT22;49403;51.046;13.780;2022-10-30T00:53:06;15.30;96.10
63277;DHT22;49403;51.046;13.780;2022-10-30T00:53:37;15.30;96.10
63277;DHT22;49403;51.046;13.780;2022-10-30T00:54:08;15.30;96.10
63277;DHT22;49403;51.046;13.780;2022-10-30T00:54:39;15.30;96.50
63277;DHT22;49403;51.046;13.780;2022-10-30T00:55:11;15.20;96.40
63277;DHT22;49403;51.046;13.780;2022-10-30T00:55:45;15.20;96.10
63277;DHT22;49403;51.046;13.780;2022-10-30T00:56:18;15.20;96.10
63277;DHT22;49403;51.046;13.780;2022-10-30T00:56:49;17.30;97.10
63277;DHT22;49403;51.046;13.780;2022-10-30T00:57:21;15.30;96.10
63277;DHT22;49403;51.046;13.780;2022-10-30T00:57:52;15.20;96.10
63277;DHT22;49403;51.046;13.780;2022-10-30T00:58:24;14.90;96.00
63277;DHT22;49403;51.046;13.780;2022-10-30T00:59:03;15.40;96.20
63277;DHT22;49403;51.046;13.780;2022-10-30T00:59:35;15.20;95.90
63277;DHT22;49403;51.046;13.780;2022-10-30T01:00:07;15.20;96.10
63277;DHT22;49403;51.046;13.780;2022-10-30T01:00:39;15.20;96.10
63277;DHT22;49403;51.046;13.780;2022-10-30T01:01:12;15.20;96.10
63277;DHT22;49403;51.046;13.780;2022-10-30T01:01:44;15.20;96.10
63277;DHT22;49403;51.046;13.780;2022-10-30T01:02:15;15.20;96.10
63277;DHT22;49403;51.046;13.780;2022-10-30T01:02:46;15.20;96.10
63277;DHT22;49403;51.046;13.780;2022-10-30T01:03:18;13.10;95.20
63277;DHT22;49403;51.046;13.780;2022-10-30T01:03:51;15.20;96.10
63277;DHT22;49403;51.046;13.780;2022-10-30T01:04:22;14.60;95.80
63277;DHT22;49403;51.046;13.780;2022-10-30T01:04:53;15.20;96.10
63277;DHT22;49403;51.046;13.780;2022-10-30T01:05:24;15.10;96.10
63277;DHT22;49403;51.046;13.780;2022-10-30T01:05:57;15.20;96.10
63277;DHT22;49403;51.046;13.780;2022-10-30T01:06:28;15.60;96.30
63277;DHT22;49403;51.046;13.780;2022-10-30T01:06:59;15.10;96.10
63277;DHT22;49403;51.046;13.780;2022-10-30T01:07:31;15.10;96.10
63277;DHT22;49403;51.046;13.780;2022-10-30T01:08:02;15.10;96.30
63277;DHT22;49403;51.046;13.780;2022-10-30T01:08:33;15.00;96.00
63277;DHT22;49403;51.046;13.780;2022-10-30T01:09:04;15.10;96.10
63277;DHT22;49403;51.046;13.780;2022-10-30T01:09:35;14.30;96.00
63277;DHT22;49403;51.046;13.780;2022-10-30T01:10:06;15.00;96.10
63277;DHT22;49403;51.046;13.780;2022-10-30T01:10:37;15.10;96.20
63277;DHT22;49403;51.046;13.780;2022-10-30T01:11:08;15.40;96.50
63277;DHT22;49403;51.046;13.780;2022-10-30T01:11:40;15.00;96.20
63277;DHT22;49403;51.046;13.780;2022-10-30T01:12:10;15.00;96.20
63277;DHT22;49403;51.046;13.780;2022-10-30T01:12:41;15.00;96.50
63277;DHT22;49403;51.046;13.780;2022-10-30T01:13:13;14.90;96.20
63277;DHT22;49403;51.046;13.780;2022-10-30T01:13:44;14.90;96.20
63277;DHT22;49403;51.046;13.780;2022-10-30T01:14:16;14.90;96.30
63277;DHT22;49403;51.046;13.780;2022-10-30T01:14:49;14.90;96.30
63277;DHT22;49403;51.046;13.780;2022-10-30T01:15:25;14.90;96.30
63277;DHT22;49403;51.046;13.780;2022-10-30T01:16:55;14.90;96.20
63277;DHT22;49403;51.046;13.780;2022-10-30T01:19:51;14.80;96.30
63277;DHT22;49403;51.046;13.780;2022-10-30T01:20:31;12.60;95.30
63277;DHT22;49403;51.046;13.780;2022-10-30T01:21:14;14.70;96.30
63277;DHT22;49403;51.046;13.780;2022-10-30T01:23:02;14.80;96.40
63277;DHT22;49403;51.046;13.780;2022-10-30T01:25:24;14.70;96.40
63277;DHT22;49403;51.046;13.780;2022-10-30T01:26:31;14.70;97.00
63277;DHT22;49403;51.046;13.780;2022-10-30T01:29:22;14.70;96.60
63277;DHT22;49403;51.046;13.780;2022-10-30T01:30:07;14.70;96.60
63277;DHT22;49403;51.046;13.780;2022-10-30T01:33:39;14.60;96.80
63277;DHT22;49403;51.046;13.780;2022-10-30T01:34:18;14.60;96.80
63277;DHT22;49403;51.046;13.780;2022-10-30T01:34:52;14.60;96.80
63277;DHT22;49403;51.046;13.780;2022-10-30T01:36:07;14.60;96.90
63277;DHT22;49403;51.046;13.780;2022-10-30T01:37:02;14.40;97.00
63277;DHT22;49403;51.046;13.780;2022-10-30T01:37:35;14.60;97.10
63277;DHT22;49403;51.046;13.780;2022-10-30T01:38:15;14.30;96.80
63277;DHT22;49403;51.046;13.780;2022-10-30T01:38:49;14.60;96.90
63277;DHT22;49403;51.046;13.780;2022-10-30T01:39:21;14.70;97.20
63277;DHT22;49403;51.046;13.780;2022-10-30T01:39:53;14.60;97.20
63277;DHT22;49403;51.046;13.780;2022-10-30T01:40:24;14.50;97.40
63277;DHT22;49403;51.046;13.780;2022-10-30T01:40:54;14.70;97.60
63277;DHT22;49403;51.046;13.780;2022-10-30T01:41:25;14.60;97.60
63277;DHT22;49403;51.046;13.780;2022-10-30T01:41:55;14.80;97.60
63277;DHT22;49403;51.046;13.780;2022-10-30T01:43:15;14.60;97.00
63277;DHT22;49403;51.046;13.780;2022-10-30T01:43:46;14.60;97.40
63277;DHT22;49403;51.046;13.780;2022-10-30T01:44:22;14.60;97.20
63277;DHT22;49403;51.046;13.780;2022-10-30T01:44:55;12.80;96.70
63277;DHT22;49403;51.046;13.780;2022-10-30T01:46:58;14.70;97.50
63277;DHT22;49403;51.046;13.780;2022-10-30T01:48:57;13.60;97.00
63277;DHT22;49403;51.046;13.780;2022-10-30T01:49:41;14.60;97.00
63277;DHT22;49403;51.046;13.780;2022-10-30T01:50:57;14.70;97.00
63277;DHT22;49403;51.046;13.780;2022-10-30T01:52:25;14.70;97.10
63277;DHT22;49403;51.046;13.780;2022-10-30T01:55:15;15.80;97.60
63277;DHT22;49403;51.046;13.780;2022-10-30T01:57:35;14.60;97.10
63277;DHT22;49403;51.046;13.780;2022-10-30T01:58:12;14.60;97.10
63277;DHT22;49403;51.046;13.780;2022-10-30T01:58:50;14.70;97.30
63277;DHT22;49403;51.046;13.780;2022-10-30T01:59:28;14.60;97.10
63277;DHT22;49403;51.046;13.780;2022-10-30T02:00:10;14.60;97.40
63277;DHT22;49403;51.046;13.780;2022-10-30T02:00:41;14.50;97.20
63277;DHT22;49403;51.046;13.780;2022-10-30T02:01:13;14.60;97.40
63277;DHT22;49403;51.046;13.780;2022-10-30T02:01:44;14.60;97.40
63277;DHT22;49403;51.046;13.780;2022-10-30T02:02:14;14.50;97.40
63277;DHT22;49403;51.046;13.780;2022-10-30T02:02:46;14.50;97.70
63277;DHT22;49403;51.046;13.780;2022-10-30T02:03:17;14.50;97.80
63277;DHT22;49403;51.046;13.780;2022-10-30T02:03:48;14.50;97.50
63277;DHT22;49403;51.046;13.780;2022-10-30T02:04:19;14.60;97.50
63277;DHT22;49403;51.046;13.780;2022-10-30T02:04:50;14.50;97.80
63277;DHT22;49403;51.046;13.780;2022-10-30T02:05:26;13.10;97.40
63277;DHT22;49403;51.046;13.780;2022-10-30T02:05:57;14.40;97.60
63277;DHT22;49403;51.046;13.780;2022-10-30T02:06:28;13.00;97.30
63277;DHT22;49403;51.046;13.780;2022-10-30T02:06:58;14.50;97.70
63277;DHT22;49403;51.046;13.780;2022-10-30T02:07:29;14.40;97.70
63277;DHT22;49403;51.046;13.780;2022-10-30T02:08:00;15.70;98.80
63277;DHT22;49403;51.046;13.780;2022-10-30T02:08:30;14.50;98.30
63277;DHT22;49403;51.046;13.780;2022-10-30T02:09:01;14.50;98.20
63277;DHT22;49403;51.046;13.780;2022-10-30T02:09:32;15.50;98.60
63277;DHT22;49403;51.046;13.780;2022-10-30T02:10:03;14.50;97.90
63277;DHT22;49403;51.046;13.780;2022-10-30T02:10:34;14.40;97.80
63277;DHT22;49403;51.046;13.780;2022-10-30T02:11:06;14.60;97.90
63277;DHT22;49403;51.046;13.780;2022-10-30T02:11:36;14.80;98.20
63277;DHT22;49403;51.046;13.780;2022-10-30T02:12:07;14.50;97.90
63277;DHT22;49403;51.046;13.780;2022-10-30T02:12:38;15.60;98.30
63277;DHT22;49403;51.046;13.780;2022-10-30T02:13:09;14.50;98.30
63277;DHT22;49403;51.046;13.780;2022-10-30T02:13:39;14.50;98.30
63277;DHT22;49403;51.046;13.780;2022-10-30T02:14:10;14.50;97.90
63277;DHT22;49403;51.046;13.780;2022-10-30T02:14:43;14.40;97.80
63277;DHT22;49403;51.046;13.780;2022-10-30T02:15:14;14.10;97.70
63277;DHT22;49403;51.046;13.780;2022-10-30T02:15:45;14.10;97.80
63277;DHT22;49403;51.046;13.780;2022-10-30T02:16:17;14.40;98.20
63277;DHT22;49403;51.046;13.780;2022-10-30T02:16:49;14.30;98.20
63277;DHT22;49403;51.046;13.780;2022-10-30T02:17:21;14.40;97.90
63277;DHT22;49403;51.046;13.780;2022-10-30T02:17:52;14.50;98.00
63277;DHT22;49403;51.046;13.780;2022-10-30T02:18:23;14.40;97.90
63277;DHT22;49403;51.046;13.780;2022-10-30T02:18:54;15.40;98.80
63277;DHT22;49403;51.046;13.780;2022-10-30T02:19:24;14.50;98.50
63277;DHT22;49403;51.046;13.780;2022-10-30T02:19:55;14.60;98.60
63277;DHT22;49403;51.046;13.780;2022-10-30T02:20:25;14.50;98.50
63277;DHT22;49403;51.046;13.780;2022-10-30T02:20:56;14.40;98.40
63277;DHT22;49403;51.046;13.780;2022-10-30T02:21:27;14.40;98.40
63277;DHT22;49403;51.046;13.780;2022-10-30T02:21:57;14.30;98.40
63277;DHT22;49403;51.046;13.780;2022-10-30T02:22:28;14.60;98.80
63277;DHT22;49403;51.046;13.780;2022-10-30T02:22:59;14.50;98.60
63277;DHT22;49403;51.046;13.780;2022-10-30T02:23:30;14.40;98.20
63277;DHT22;49403;51.046;13.780;2022-10-30T02:24:00;14.40;98.50
63277;DHT22;49403;51.046;13.780;2022-10-30T02:24:31;14.40;98.50
63277;DHT22;49403;51.046;13.780;2022-10-30T02:25:02;14.30;98.20
63277;DHT22;49403;51.046;13.780;2022-10-30T02:25:33;14.50;98.70
63277;DHT22;49403;51.046;13.780;2022-10-30T02:26:04;14.50;98.30
63277;DHT22;49403;51.046;13.780;2022-10-30T02:26:34;14.50;98.50
63277;DHT22;49403;51.046;13.780;2022-10-30T02:27:05;14.40;98.20
63277;DHT22;49403;51.046;13.780;2022-10-30T02:27:36;14.40;98.60
63277;DHT22;49403;51.046;13.780;2022-10-30T02:28:06;14.50;98.60
63277;DHT22;49403;51.046;13.780;2022-10-30T02:28:37;14.40;98.60
63277;DHT22;49403;51.046;13.780;2022-10-30T02:29:08;14.40;98.50
63277;DHT22;49403;51.046;13.780;2022-10-30T02:29:38;14.40;98.50
63277;DHT22;49403;51.046;13.780;2022-10-30T02:30:10;14.40;98.60
63277;DHT22;49403;51.046;13.780;2022-10-30T02:30:40;14.40;98.20
63277;DHT22;49403;51.046;13.780;2022-10-30T02:31:13;14.60;98.40
63277;DHT22;49403;51.046;13.780;2022-10-30T02:31:44;16.60;99.60
63277;DHT22;49403;51.046;13.780;2022-10-30T02:32:14;14.40;98.50
63277;DHT22;49403;51.046;13.780;2022-10-30T02:32:45;14.40;98.50
63277;DHT22;49403;51.046;13.780;2022-10-30T02:33:16;15.40;99.00
63277;DHT22;49403;51.046;13.780;2022-10-30T02:33:46;14.40;98.60
63277;DHT22;49403;51.046;13.780;2022-10-30T02:34:17;14.40;98.30
63277;DHT22;49403;51.046;13.780;2022-10-30T02:34:48;14.40;98.70
63277;DHT22;49403;51.046;13.780;2022-10-30T02:35:18;14.40;98.60
63277;DHT22;49403;51.046;13.780;2022-10-30T02:35:50;14.90;98.80
63277;DHT22;49403;51.046;13.780;2022-10-30T02:36:21;15.80;99.00
63277;DHT22;49403;51.046;13.780;2022-10-30T02:36:51;14.50;98.70
63277;DHT22;49403;51.046;13.780;2022-10-30T02:37:22;14.40;98.60
63277;DHT22;49403;51.046;13.780;2022-10-30T02:37:53;14.40;98.60
63277;DHT22;49403;51.046;13.780;2022-10-30T02:38:24;14.40;98.70
63277;DHT22;49403;51.046;13.780;2022-10-30T02:38:55;15.40;99.20
63277;DHT22;49403;51.046;13.780;2022-10-30T02:39:25;14.40;98.60
63277;DHT22;49403;51.046;13.780;2022-10-30T02:39:56;14.40;98.60
63277;DHT22;49403;51.046;13.780;2022-10-30T02:40:27;14.40;98.70
63277;DHT22;49403;51.046;13.780;2022-10-30T02:40:57;14.50;98.70
63277;DHT22;49403;51.046;13.780;2022-10-30T02:41:28;14.50;98.70
63277;DHT22;49403;51.046;13.780;2022-10-30T02:41:59;16.60;99.60
63277;DHT22;49403;51.046;13.780;2022-10-30T02:42:31;14.50;98.60
63277;DHT22;49403;51.046;13.780;2022-10-30T02:43:01;14.50;98.70
63277;DHT22;49403;51.046;13.780;2022-10-30T02:43:32;12.90;98.00
63277;DHT22;49403;51.046;13.780;2022-10-30T02:44:03;14.50;98.70
63277;DHT22;49403;51.046;13.780;2022-10-30T02:44:34;14.50;98.40
63277;DHT22;49403;51.046;13.780;2022-10-30T02:45:05;14.50;98.70
63277;DHT22;49403;51.046;13.780;2022-10-30T02:45:35;13.50;97.90
63277;DHT22;49403;51.046;13.780;2022-10-30T02:46:06;15.80;99.30
63277;DHT22;49403;51.046;13.780;2022-10-30T02:46:37;14.40;98.60
63277;DHT22;49403;51.046;13.780;2022-10-30T02:47:08;15.90;99.20
63277;DHT22;49403;51.046;13.780;2022-10-30T02:47:38;14.50;98.50
63277;DHT22;49403;51.046;13.780;2022-10-30T02:48:09;14.60;98.70
63277;DHT22;49403;51.046;13.780;2022-10-30T02:48:39;14.50;98.70
63277;DHT22;49403;51.046;13.780;2022-10-30T02:49:10;15.10;98.90
63277;DHT22;49403;51.046;13.780;2022-10-30T02:49:40;15.60;99.20
63277;DHT22;49403;51.046;13.780;2022-10-30T02:50:11;14.60;98.50
63277;DHT22;49403;51.046;13.780;2022-10-30T02:50:42;14.50;98.40
63277;DHT22;49403;51.046;13.780;2022-10-30T02:51:12;14.60;98.70
63277;DHT22;49403;51.046;13.780;2022-10-30T02:51:43;14.60;98.70
63277;DHT22;49403;51.046;13.780;2022-10-30T02:52:14;14.60;98.60
63277;DHT22;49403;51.046;13.780;2022-10-30T02:52:44;14.90;98.70
63277;DHT22;49403;51.046;13.780;2022-10-30T02:53:15;14.60;98.70
63277;DHT22;49403;51.046;13.780;2022-10-30T02:53:46;15.60;99.20
63277;DHT22;49403;51.046;13.780;2022-10-30T02:54:16;14.70;98.70
63277;DHT22;49403;51.046;13.780;2022-10-30T02:54:47;15.60;99.10
63277;DHT22;49403;51.046;13.780;2022-10-30T02:55:18;14.60;98.70
63277;DHT22;49403;51.046;13.780;2022-10-30T02:55:49;14.60;98.20
63277;DHT22;49403;51.046;13.780;2022-10-30T02:56:19;14.70;98.60
63277;DHT22;49403;51.046;13.780;2022-10-30T02:56:50;14.70;98.60
63277;DHT22;49403;51.046;13.780;2022-10-30T02:57:21;14.60;98.40
63277;DHT22;49403;51.046;13.780;2022-10-30T02:57:52;12.80;97.60
63277;DHT22;49403;51.046;13.780;2022-10-30T02:58:23;15.80;98.70
63277;DHT22;49403;51.046;13.780;2022-10-30T02:58:54;14.70;98.50
63277;DHT22;49403;51.046;13.780;2022-10-30T02:59:25;14.60;98.20
63277;DHT22;49403;51.046;13.780;2022-10-30T02:59:55;14.60;98.50
63277;DHT22;49403;51.046;13.780;2022-10-30T03:00:26;14.60;98.50
63277;DHT22;49403;51.046;13.780;2022-10-30T03:00:57;13.30;98.00
63277;DHT22;49403;51.046;13.780;2022-10-30T03:01:27;14.60;98.40
63277;DHT22;49403;51.046;13.780;2022-10-30T03:01:58;14.60;98.60
63277;DHT22;49403;51.046;13.780;2022-10-30T03:02:29;14.60;98.50
63277;DHT22;49403;51.046;13.780;2022-10-30T03:02:59;14.80;98.60
63277;DHT22;49403;51.046;13.780;2022-10-30T03:03:30;14.70;98.50
63277;DHT22;49403;51.046;13.780;2022-10-30T03:04:01;14.70;98.50
63277;DHT22;49403;51.046;13.780;2022-10-30T03:04:31;14.70;98.50
63277;DHT22;49403;51.046;13.780;2022-10-30T03:05:02;14.70;98.50
63277;DHT22;49403;51.046;13.780;2022-10-30T03:05:33;14.70;98.50
63277;DHT22;49403;51.046;13.780;2022-10-30T03:06:04;14.70;98.50
63277;DHT22;49403;51.046;13.780;2022-10-30T03:06:35;14.70;98.30
63277;DHT22;49403;51.046;13.780;2022-10-30T03:07:05;14.80;99.00
63277;DHT22;49403;51.046;13.780;2022-10-30T03:07:36;14.70;98.60
63277;DHT22;49403;51.046;13.780;2022-10-30T03:08:06;14.70;98.70
63277;DHT22;49403;51.046;13.780;2022-10-30T03:08:37;15.10;98.80
63277;DHT22;49403;51.046;13.780;2022-10-30T03:09:08;17.10;99.70
63277;DHT22;49403;51.046;13.780;2022-10-30T03:09:38;14.70;98.60
63277;DHT22;49403;51.046;13.780;2022-10-30T03:10:09;14.80;98.60
63277;DHT22;49403;51.046;13.780;2022-10-30T03:10:39;14.90;98.70
63277;DHT22;49403;51.046;13.780;2022-10-30T03:11:11;15.40;98.80
63277;DHT22;49403;51.046;13.780;2022-10-30T03:11:42;14.70;98.20
63277;DHT22;49403;51.046;13.780;2022-10-30T03:12:13;14.70;98.40
63277;DHT22;49403;51.046;13.780;2022-10-30T03:12:44;14.70;98.40
63277;DHT22;49403;51.046;13.780;2022-10-30T03:13:15;14.70;98.50
63277;DHT22;49403;51.046;13.780;2022-10-30T03:13:46;14.70;98.40
63277;DHT22;49403;51.046;13.780;2022-10-30T03:14:17;14.70;98.10
63277;DHT22;49403;51.046;13.780;2022-10-30T03:14:47;14.80;98.40
63277;DHT22;49403;51.046;13.780;2022-10-30T03:15:18;14.70;98.50
63277;DHT22;49403;51.046;13.780;2022-10-30T03:15:49;14.80;98.20
63277;DHT22;49403;51.046;13.780;2022-10-30T03:16:21;14.80;98.50
63277;DHT22;49403;51.046;13.780;2022-10-30T03:16:52;14.70;98.10
63277;DHT22;49403;51.046;13.780;2022-10-30T03:17:22;14.80;98.40
63277;DHT22;49403;51.046;13.780;2022-10-30T03:17:53;15.90;98.90
63277;DHT22;49403;51.046;13.780;2022-10-30T03:18:24;14.80;98.40
63277;DHT22;49403;51.046;13.780;2022-10-30T03:18:55;14.80;98.40
63277;DHT22;49403;51.046;13.780;2022-10-30T03:19:26;15.20;98.30
63277;DHT22;49403;51.046;13.780;2022-10-30T03:19:57;14.80;98.40
63277;DHT22;49403;51.046;13.780;2022-10-30T03:20:27;14.80;98.40
63277;DHT22;49403;51.046;13.780;2022-10-30T03:20:59;14.80;98.40
63277;DHT22;49403;51.046;13.780;2022-10-30T03:21:30;14.10;97.80
63277;DHT22;49403;51.046;13.780;2022-10-30T03:22:00;14.80;98.40
63277;DHT22;49403;51.046;13.780;2022-10-30T03:22:31;13.60;97.70
63277;DHT22;49403;51.046;13.780;2022-10-30T03:23:02;14.90;98.30
63277;DHT22;49403;51.046;13.780;2022-10-30T03:23:33;16.10;98.90
63277;DHT22;49403;51.046;13.780;2022-10-30T03:24:04;14.90;98.00
63277;DHT22;49403;51.046;13.780;2022-10-30T03:24:34;14.80;98.00
63277;DHT22;49403;51.046;13.780;2022-10-30T03:25:05;14.80;98.20
63277;DHT22;49403;51.046;13.780;2022-10-30T03:25:36;14.60;98.10
63277;DHT22;49403;51.046;13.780;2022-10-30T03:26:06;15.30;98.70
63277;DHT22;49403;51.046;13.780;2022-10-30T03:26:37;14.90;98.20
63277;DHT22;49403;51.046;13.780;2022-10-30T03:27:08;12.80;97.20
63277;DHT22;49403;51.046;13.780;2022-10-30T03:27:38;14.90;98.30
63277;DHT22;49403;51.046;13.780;2022-10-30T03:28:09;14.90;98.20
63277;DHT22;49403;51.046;13.780;2022-10-30T03:28:40;14.90;98.20
63277;DHT22;49403;51.046;13.780;2022-10-30T03:29:10;15.00;98.20
63277;DHT22;49403;51.046;13.780;2022-10-30T03:29:41;14.80;98.20
63277;DHT22;49403;51.046;13.780;2022-10-30T03:30:12;14.90;98.20
63277;DHT22;49403;51.046;13.780;2022-10-30T03:30:42;14.90;98.20
63277;DHT22;49403;51.046;13.780;2022-10-30T03:31:14;14.90;98.20
63277;DHT22;49403;51.046;13.780;2022-10-30T03:31:45;14.90;97.90
63277;DHT22;49403;51.046;13.780;2022-10-30T03:32:16;17.40;99.30
63277;DHT22;49403;51.046;13.780;2022-10-30T03:32:46;15.00;98.30
63277;DHT22;49403;51.046;13.780;2022-10-30T03:33:17;15.90;98.50
63277;DHT22;49403;51.046;13.780;2022-10-30T03:33:47;14.90;98.20
63277;DHT22;49403;51.046;13.780;2022-10-30T03:34:18;15.30;98.40
63277;DHT22;49403;51.046;13.780;2022-10-30T03:34:48;14.90;98.10
63277;DHT22;49403;51.046;13.780;2022-10-30T03:35:19;15.00;98.20
63277;DHT22;49403;51.046;13.780;2022-10-30T03:35:50;15.00;97.90
63277;DHT22;49403;51.046;13.780;2022-10-30T03:36:20;15.10;98.00
63277;DHT22;49403;51.046;13.780;2022-10-30T03:36:51;15.50;98.40
63277;DHT22;49403;51.046;13.780;2022-10-30T03:37:21;14.90;98.00
63277;DHT22;49403;51.046;13.780;2022-10-30T03:37:52;14.90;98.00
63277;DHT22;49403;51.046;13.780;2022-10-30T03:38:23;15.00;98.00
63277;DHT22;49403;51.046;13.780;2022-10-30T03:38:54;14.90;97.80
63277;DHT22;49403;51.046;13.780;2022-10-30T03:39:24;14.50;97.90